• Join FlightAware (Why Join?)
  • Login
  • US Flag 
12:37AM EDT


 

Airport Tracker/Info


-or-


 

Live Flight TrackerFlight Track Log ✈ N960DL ✈ 22-Apr-2013 ✈ KATL - KIAH

Flight Track Log - Related Links

Times and Time Zones

All times are in EDT time to prevent confusion due to time zone crossing. See the N960DL flight status page for this flight to view local times or setup timezone preferences in your user account.

Time Position Orientation Groundspeed Altitude Reporting Facility
EDT Latitude Longitude Course Direction KTS MPH feet Rate Location/Type
11:33AM 33.6478 -84.3733 246° West 443 510 2,600  Level Atlanta Center
11:34AM 33.6792 -84.2983 63° Northeast 290 334 5,100 2,460 Climbing Atlanta Center
11:35AM 33.7500 -84.2833 10° North 284 327 7,300 2,520 Climbing Atlanta TRACON
11:36AM 33.8001 -84.4862 270° West  Level FlightAware Approximate
11:36AM 33.8167 -84.3167 337° Northwest 297 342 10,100  Level Atlanta TRACON
11:37AM 33.7762 -84.6117 234° Southwest  Level FlightAware Approximate
11:38AM 33.7100 -84.7192 234° Southwest  Level FlightAware Approximate
11:38AM 33.8100 -84.5289 268° West 325 374 14,000  Level Atlanta Center
11:39AM 33.6458 -84.8280 246° West  Level FlightAware Approximate
11:39AM 33.7803 -84.6386 252° West 346 398 15,700  Level Atlanta Center
11:40AM 33.7108 -84.7406 231° Southwest 359 413 17,100 1,380 Climbing Atlanta Center
11:41AM 33.6369 -84.8697 236° Southwest 403 464 18,500 1,620 Climbing Atlanta Center
11:42AM 33.5922 -84.9964 247° West 416 479 20,400 1,860 Climbing Atlanta Center
11:43AM 33.5494 -85.1256 248° West 424 488 22,300 1,860 Climbing Atlanta Center
11:44AM 33.5086 -85.2597 250° West 424 488 24,200 2,040 Climbing Atlanta Center
11:45AM 33.4861 -85.3939 259° West 419 482 26,400 1,680 Climbing Atlanta Center
11:46AM 33.4639 -85.5278 259° West 414 476 27,600 1,560 Climbing Atlanta Center
11:47AM 33.4456 -85.6619 261° West 414 476 29,600 1,680 Climbing Atlanta Center
11:48AM 33.4208 -85.7908 257° West 397 457 31,000 1,080 Climbing Atlanta Center
11:49AM 33.4044 -85.9000 260° West 390 449 31,800 600 Climbing Atlanta Center
11:50AM 33.3836 -86.0317 259° West 390 449 32,300 600 Climbing Atlanta Center
11:51AM 33.3628 -86.1581 259° West 390 449 33,000 600 Climbing Atlanta Center
11:52AM 33.3417 -86.2842 259° West 390 449 33,600 480 Climbing Atlanta Center
11:53AM 33.3228 -86.4031 259° West 397 457 34,000 180 Climbing Atlanta Center
11:54AM 33.2989 -86.5564 259° West 391 450 34,000  Level Atlanta Center
11:55AM 33.2775 -86.6825 259° West 391 450 34,000  Level Atlanta Center
11:56AM 33.2581 -86.8086 260° West 398 458 34,000  Level Atlanta Center
11:57AM 33.2364 -86.9347 258° West 392 451 34,000  Level Atlanta Center
11:58AM 33.1853 -87.0569 243° Southwest 389 448 34,000  Level Atlanta Center
11:59AM 33.1347 -87.1594 240° Southwest 395 455 34,000  Level Atlanta Center
12:00PM 33.0839 -87.2717 242° Southwest 400 460 34,000  Level Atlanta Center
12:01PM 33.0261 -87.4008 242° Southwest 400 460 34,000  Level Atlanta Center
12:05PM 32.8261 -87.8456 242° Southwest 405 466 34,000  Level Memphis Center
12:06PM 32.7761 -87.9631 243° Southwest 405 466 34,000  Level Memphis Center
12:07PM 32.7242 -88.0781 242° Southwest 405 466 34,000  Level Memphis Center
12:08PM 32.6678 -88.1956 240° Southwest 405 466 34,000  Level Memphis Center
12:09PM 32.6175 -88.3103 243° Southwest 405 466 34,000  Level Memphis Center
12:10PM 32.5631 -88.4272 241° Southwest 411 473 34,000  Level Memphis Center
12:11PM 32.5125 -88.5467 243° Southwest 411 473 34,000  Level Memphis Center
12:12PM 32.4744 -88.6656 249° West 405 466 34,000  Level Memphis Center
12:13PM 32.4322 -88.7869 248° West 400 460 34,000  Level Memphis Center
12:14PM 32.3942 -88.9081 250° West 400 460 34,000  Level Memphis Center
12:15PM 32.3578 -89.0292 250° West 395 455 34,000  Level Memphis Center
12:16PM 32.3217 -89.1478 250° West 390 449 34,000  Level Memphis Center
12:17PM 32.2831 -89.2664 249° West 390 449 34,000  Level Memphis Center
12:18PM 32.2464 -89.3869 250° West 390 449 34,000  Level Memphis Center
12:19PM 32.2097 -89.5078 250° West 390 449 34,000  Level Memphis Center
12:20PM 32.1728 -89.6236 249° West 390 449 34,000  Level Memphis Center
12:21PM 32.1358 -89.7464 250° West 390 449 34,000  Level Memphis Center
12:22PM 32.1011 -89.8644 251° West 390 449 34,000  Level Memphis Center
12:23PM 32.0639 -89.9797 249° West 390 449 34,000  Level Memphis Center
12:24PM 32.0286 -90.0975 251° West 390 449 34,000  Level Memphis Center
12:25PM 31.9892 -90.2153 248° West 390 449 34,000  Level Memphis Center
12:26PM 31.9558 -90.3328 252° West 390 449 34,000  Level Memphis Center
12:29PM 31.8594 -90.6364 250° West 382 440 34,000  Level Houston Center
12:30PM 31.8233 -90.7536 250° West 384 442 34,000  Level Houston Center
12:31PM 31.7861 -90.8694 249° West 383 441 34,000  Level Houston Center
12:32PM 31.7492 -90.9867 250° West 384 442 34,000  Level Houston Center
12:33PM 31.7089 -91.1128 249° West 384 442 34,000  Level Houston Center
12:34PM 31.6722 -91.2294 250° West 382 440 34,000  Level Houston Center
12:35PM 31.6350 -91.3456 249° West 381 438 34,000  Level Houston Center
12:36PM 31.5908 -91.4867 250° West 384 442 34,000  Level Houston Center
12:37PM 31.5525 -91.6036 249° West 384 442 34,000  Level Houston Center
12:38PM 31.5164 -91.7217 250° West 384 442 34,000  Level Houston Center
12:39PM 31.4775 -91.8406 249° West 388 447 34,000  Level Houston Center
12:40PM 31.4406 -91.9589 250° West 388 447 34,000  Level Houston Center
12:41PM 31.3972 -92.0853 248° West 389 448 34,000  Level Houston Center
12:42PM 31.3578 -92.2044 249° West 392 451 34,000  Level Houston Center
12:43PM 31.3181 -92.3228 249° West 393 452 34,000  Level Houston Center
12:44PM 31.2689 -92.4658 248° West 397 457 34,000  Level Houston Center
12:45PM 31.2167 -92.5817 242° Southwest 403 464 34,000  Level Houston Center
12:46PM 31.1533 -92.6903 236° Southwest 406 467 34,000  Level Houston Center
12:47PM 31.0897 -92.8000 236° Southwest 405 466 34,000  Level Houston Center
12:48PM 31.0306 -92.9050 237° Southwest 398 458 34,000  Level Houston Center
12:50PM 30.9697 -93.0136 237° Southwest 400 460 34,000  Level Houston Center
12:51PM 30.8972 -93.1456 237° Southwest 405 466 34,000  Level Houston Center
12:52PM 30.8361 -93.2544 237° Southwest 404 465 34,000  Level Houston Center
12:53PM 30.7753 -93.3633 237° Southwest 404 465 34,000 -660 Level Houston Center
12:54PM 30.7142 -93.4706 236° Southwest 402 463 32,700 -2,280 Descending Houston Center
12:55PM 30.6522 -93.5792 236° Southwest 406 467 29,400 -3,420 Descending Houston Center
12:56PM 30.5736 -93.7158 236° Southwest 429 494 25,700 -2,880 Descending Houston Center
12:57PM 30.5106 -93.8267 237° Southwest 420 483 23,500 -2,100 Descending Houston Center
12:58PM 30.4492 -93.9325 236° Southwest 402 463 21,400 -2,160 Descending Houston Center
12:59PM 30.3903 -94.0336 236° Southwest 383 441 19,000 -2,520 Descending Houston Center
01:00PM 30.3419 -94.1178 236° Southwest 371 427 17,100 -2,520 Descending Houston Center
01:00PM 30.3217 -94.1533 237° Southwest 374 430 16,400 -2,280 Descending Houston Center
01:01PM 30.2828 -94.2203 236° Southwest 359 413 14,800 -2,160 Descending Houston Center
01:01PM 30.2667 -94.2475 236° Southwest 357 411 14,200 -2,280 Descending Houston Center
01:02PM 30.2306 -94.3094 236° Southwest 352 405 12,500 -2,160 Descending Houston Center
01:02PM 30.2122 -94.3403 235° Southwest 351 404 12,000 -1,620 Descending Houston Center
01:03PM 30.1864 -94.4144 248° West 321 369 10,900 -1,500 Descending Houston Center
01:03PM 30.1833 -94.4386 262° West 324 373 10,500 -900 Descending Houston Center
01:04PM 30.1706 -94.5108 258° West 297 342 10,000 -900 Descending Houston Center
01:04PM 30.1686 -94.5297 263° West 300 345 9,600 -1,560 Descending Houston Center
01:05PM 30.1564 -94.6022 259° West 281 323 8,400 -1,860 Descending Houston Center
01:05PM 30.1522 -94.6361 262° West 285 328 7,700 -1,680 Descending Houston Center
01:06PM 30.1422 -94.6933 259° West 282 325 6,700 -1,380 Descending Houston Center
01:06PM 30.1375 -94.7244 260° West 282 325 6,300 -720 Descending Houston Center
01:07PM 30.1253 -94.7800 256° West 275 316 6,000 -300 Descending Houston Center
01:07PM 30.1222 -94.8106 263° West 278 320 6,000  Level Houston Center
01:08PM 30.1106 -94.8689 257° West 274 315 6,000  Level Houston Center
01:08PM 30.1069 -94.8964 261° West 275 316 6,000  Level Houston Center
01:09PM 30.1044 -94.9592 267° West 276 318 6,000  Level Houston Center
01:09PM 30.1064 -94.9844 275° West 277 319 6,000  Level Houston Center
01:10PM 30.1044 -95.0486 268° West 274 315 6,000  Level Houston Center
01:10PM 30.1056 -95.0892 272° West 275 316 6,000  Level Houston Center
01:11PM 30.1044 -95.1378 268° West 275 316 6,000  Level Houston Center
01:11PM 30.1058 -95.1769 272° West 276 318 6,000  Level Houston Center
01:12PM 30.1064 -95.2633 270° West 273 314 6,000  Level Houston Center
01:13PM 30.1047 -95.3239 268° West 264 304 6,000  Level Houston Center
01:13PM 30.1067 -95.3475 275° West 268 308 6,000 -240 Level Houston Center
01:14PM 30.1053 -95.3986 268° West 197 227 5,800 -720 Descending Houston Center
01:14PM 30.1069 -95.4153 277° West 223 257 5,300 -2,040 Descending Houston Center
01:15PM 30.1044 -95.4567 266° West 202 232 3,900 -2,220 Descending Houston Center
01:15PM 30.0958 -95.4894 253° West 208 239 3,000 -1,620 Descending Houston Center